createdAt,value
2023-05-01T00:00:24.664Z,298
2023-05-01T00:01:33.900Z,298
2023-05-01T00:02:43.164Z,296
2023-05-01T00:03:51.196Z,295
2023-05-01T00:04:59.400Z,296
2023-05-01T00:06:08.569Z,295
2023-05-01T00:07:16.761Z,296
2023-05-01T00:08:24.939Z,298
2023-05-01T00:09:34.145Z,296
2023-05-01T00:10:43.301Z,297
2023-05-01T00:11:52.514Z,296
2023-05-01T00:13:01.653Z,297
2023-05-01T00:14:10.827Z,297
2023-05-01T00:15:19.977Z,296
2023-05-01T00:16:29.158Z,297
2023-05-01T00:17:38.326Z,296
2023-05-01T00:18:47.512Z,296
2023-05-01T00:19:56.725Z,295
2023-05-01T00:21:05.867Z,294
2023-05-01T00:22:15.029Z,296
2023-05-01T00:23:24.191Z,296
2023-05-01T00:24:32.375Z,296
2023-05-01T00:26:50.726Z,296
2023-05-01T00:27:59.905Z,296
2023-05-01T00:29:09.071Z,295
2023-05-01T00:30:18.244Z,295
2023-05-01T00:31:27.414Z,296
2023-05-01T00:32:36.586Z,296
2023-05-01T00:33:45.753Z,295
2023-05-01T00:34:54.945Z,296
2023-05-01T00:36:04.131Z,296
2023-05-01T00:37:13.298Z,297
2023-05-01T00:38:22.451Z,297
2023-05-01T00:39:30.638Z,296
2023-05-01T00:40:38.856Z,297
2023-05-01T00:41:47.077Z,296
2023-05-01T00:42:56.207Z,296
2023-05-01T00:44:05.387Z,297
2023-05-01T00:45:13.591Z,296
2023-05-01T00:46:21.763Z,296
2023-05-01T00:47:30.934Z,295
2023-05-01T00:48:40.112Z,296
2023-05-01T00:49:49.461Z,297
2023-05-01T00:50:58.453Z,297
2023-05-01T00:52:07.634Z,296
2023-05-01T00:53:16.870Z,296
2023-05-01T00:54:25.973Z,296
2023-05-01T00:55:35.194Z,298
2023-05-01T00:56:44.330Z,296
2023-05-01T00:57:53.482Z,297
2023-05-01T00:59:02.664Z,296
2023-05-01T01:00:11.854Z,296
2023-05-01T01:01:20.063Z,298
2023-05-01T01:03:38.376Z,296
2023-05-01T01:04:47.546Z,296
2023-05-01T01:05:56.707Z,296
2023-05-01T01:08:15.087Z,296
2023-05-01T01:09:23.331Z,296
2023-05-01T01:10:31.459Z,296
2023-05-01T01:11:40.619Z,31
2023-05-01T01:12:49.834Z,32
2023-05-01T01:13:58.963Z,32
2023-05-01T01:15:08.141Z,32
2023-05-01T01:16:17.396Z,32
2023-05-01T01:17:26.588Z,32
2023-05-01T01:18:35.769Z,72
2023-05-01T01:19:44.887Z,70
2023-05-01T01:20:54.038Z,71
2023-05-01T01:22:02.201Z,70
2023-05-01T01:23:10.387Z,70
2023-05-01T01:24:19.570Z,70
2023-05-01T01:25:28.714Z,71
2023-05-01T01:26:37.890Z,70
2023-05-01T01:27:47.076Z,70
2023-05-01T01:28:56.232Z,71
2023-05-01T01:30:05.493Z,70
2023-05-01T01:31:14.665Z,70
2023-05-01T01:32:23.757Z,70
2023-05-01T01:33:32.930Z,71
2023-05-01T01:34:42.205Z,69
2023-05-01T01:35:51.300Z,70
2023-05-01T01:37:00.456Z,70
2023-05-01T01:38:08.704Z,70
2023-05-01T01:39:17.830Z,70
2023-05-01T01:40:26.980Z,71
2023-05-01T01:41:36.164Z,74
2023-05-01T01:42:45.338Z,74
2023-05-01T01:43:54.497Z,74
2023-05-01T01:45:03.677Z,74
2023-05-01T01:46:12.833Z,74
2023-05-01T01:47:22.066Z,74
2023-05-01T01:48:31.253Z,74
2023-05-01T01:49:40.493Z,74
2023-05-01T01:50:49.648Z,74
2023-05-01T01:51:58.702Z,74
2023-05-01T01:53:06.903Z,75
2023-05-01T01:54:16.119Z,73
2023-05-01T01:55:25.231Z,10
2023-05-01T01:56:34.402Z,12
2023-05-01T01:57:43.585Z,12
2023-05-01T01:58:52.749Z,11
2023-05-01T02:00:02.033Z,1
2023-05-01T02:01:11.229Z,0
2023-05-01T02:02:20.297Z,0
2023-05-01T02:03:29.513Z,0
2023-05-01T02:04:38.679Z,0
2023-05-01T02:05:47.791Z,0
2023-05-01T02:06:56.966Z,0
2023-05-01T02:08:05.145Z,49
2023-05-01T02:09:14.358Z,49
2023-05-01T02:10:23.538Z,49
2023-05-01T02:11:32.673Z,48
2023-05-01T02:13:51.010Z,48
2023-05-01T02:15:00.187Z,49
2023-05-01T02:16:09.354Z,48
2023-05-01T02:17:18.557Z,50
2023-05-01T02:18:27.706Z,57
2023-05-01T02:19:36.909Z,70
2023-05-01T02:20:46.052Z,70
2023-05-01T02:21:55.226Z,70
2023-05-01T02:23:03.409Z,70
2023-05-01T02:24:12.643Z,70
2023-05-01T02:25:21.766Z,69
2023-05-01T02:26:30.924Z,70
2023-05-01T02:27:40.105Z,69
2023-05-01T02:28:49.318Z,70
2023-05-01T02:31:07.678Z,70
2023-05-01T02:32:16.915Z,70
2023-05-01T02:33:26.012Z,69
2023-05-01T02:34:35.137Z,69
2023-05-01T02:35:44.309Z,70
2023-05-01T02:36:53.489Z,70
2023-05-01T02:38:01.740Z,70
2023-05-01T02:39:10.880Z,69
2023-05-01T02:41:28.279Z,70
2023-05-01T02:42:36.400Z,70
2023-05-01T02:43:44.609Z,70
2023-05-01T02:44:52.782Z,56
2023-05-01T02:46:00.991Z,56
2023-05-01T02:47:10.140Z,56
2023-05-01T02:48:19.316Z,55
2023-05-01T02:49:28.495Z,90
2023-05-01T02:50:37.656Z,90
2023-05-01T02:51:46.895Z,90
2023-05-01T02:52:56.017Z,89
2023-05-01T02:54:05.195Z,56
2023-05-01T02:56:23.609Z,56
2023-05-01T02:57:32.713Z,57
2023-05-01T02:58:41.875Z,56
2023-05-01T02:59:51.038Z,57
2023-05-01T03:00:59.233Z,57
2023-05-01T03:02:08.507Z,56
2023-05-01T03:03:17.619Z,56
2023-05-01T03:04:26.759Z,56
2023-05-01T03:05:35.944Z,57
2023-05-01T03:06:45.108Z,56
2023-05-01T03:07:54.273Z,56
2023-05-01T03:09:03.450Z,56
2023-05-01T03:10:11.713Z,56
2023-05-01T03:11:19.864Z,56
2023-05-01T03:12:28.061Z,58
2023-05-01T03:13:36.222Z,56
2023-05-01T03:14:45.383Z,56
2023-05-01T03:15:54.546Z,56
2023-05-01T03:17:03.721Z,56
2023-05-01T03:18:12.901Z,55
2023-05-01T03:19:22.073Z,57
2023-05-01T03:20:31.330Z,56
2023-05-01T03:21:40.403Z,56
2023-05-01T03:22:49.588Z,56
2023-05-01T03:23:58.757Z,56
2023-05-01T03:25:07.929Z,57
2023-05-01T03:26:17.117Z,56
2023-05-01T03:27:26.283Z,56
2023-05-01T03:28:34.537Z,56
2023-05-01T03:29:43.707Z,56
2023-05-01T03:30:52.813Z,57
2023-05-01T03:32:01.987Z,57
2023-05-01T03:33:11.158Z,56
2023-05-01T03:34:20.352Z,57
2023-05-01T03:35:29.492Z,56
2023-05-01T03:36:37.703Z,56
2023-05-01T03:37:45.886Z,56
2023-05-01T03:38:55.059Z,78
2023-05-01T03:40:04.267Z,77
2023-05-01T03:41:12.417Z,78
2023-05-01T03:42:20.602Z,77
2023-05-01T03:43:29.794Z,77
2023-05-01T03:44:38.980Z,77
2023-05-01T03:45:48.129Z,77
2023-05-01T03:46:57.316Z,79
2023-05-01T03:49:15.668Z,77
2023-05-01T03:50:24.891Z,77
2023-05-01T03:51:33.998Z,77
2023-05-01T03:52:43.283Z,78
2023-05-01T03:53:52.354Z,77
2023-05-01T03:55:01.525Z,77
2023-05-01T03:56:10.681Z,77
2023-05-01T03:57:18.882Z,77
2023-05-01T03:58:28.069Z,77
2023-05-01T03:59:37.229Z,78
2023-05-01T04:00:46.415Z,71
2023-05-01T04:01:55.589Z,70
2023-05-01T04:03:04.735Z,70
2023-05-01T04:04:13.927Z,70
2023-05-01T04:05:23.094Z,70
2023-05-01T04:06:31.274Z,72
2023-05-01T04:07:39.486Z,70
2023-05-01T04:08:48.634Z,71
2023-05-01T04:09:57.860Z,71
2023-05-01T04:11:07.006Z,71
2023-05-01T04:12:16.208Z,71
2023-05-01T04:13:24.358Z,71
2023-05-01T04:14:32.593Z,83
2023-05-01T04:15:41.717Z,84
2023-05-01T04:16:50.892Z,82
2023-05-01T04:18:00.074Z,83
2023-05-01T04:20:18.416Z,72
2023-05-01T04:21:27.578Z,72
2023-05-01T04:22:36.754Z,71
2023-05-01T04:23:45.936Z,71
2023-05-01T04:24:55.100Z,72
2023-05-01T04:26:04.285Z,72
2023-05-01T04:27:13.465Z,58
2023-05-01T04:28:22.621Z,58
2023-05-01T04:29:30.804Z,59
2023-05-01T04:30:40.096Z,58
2023-05-01T04:31:48.175Z,57
2023-05-01T04:32:57.503Z,61
2023-05-01T04:34:06.545Z,29
2023-05-01T04:35:15.691Z,101
2023-05-01T04:36:24.936Z,100
2023-05-01T04:38:43.273Z,100
2023-05-01T04:41:00.645Z,73
2023-05-01T04:42:08.849Z,66
2023-05-01T04:43:17.054Z,86
2023-05-01T04:45:34.323Z,61
2023-05-01T04:46:42.695Z,30
2023-05-01T04:47:50.704Z,51
2023-05-01T04:48:59.909Z,53
2023-05-01T04:50:09.051Z,75
2023-05-01T04:51:18.258Z,74
2023-05-01T04:52:27.404Z,64
2023-05-01T04:53:36.558Z,65
2023-05-01T04:54:45.811Z,59
2023-05-01T04:55:54.924Z,58
2023-05-01T04:57:04.090Z,59
2023-05-01T04:58:13.255Z,63
2023-05-01T04:59:22.433Z,64
2023-05-01T05:00:30.644Z,65
2023-05-01T05:01:39.845Z,79
2023-05-01T05:02:47.982Z,79
2023-05-01T05:03:57.155Z,65
2023-05-01T05:05:06.344Z,52
2023-05-01T05:06:15.514Z,52
2023-05-01T05:07:24.673Z,55
2023-05-01T05:08:33.841Z,56
2023-05-01T05:09:43.016Z,59
2023-05-01T05:10:52.275Z,57
2023-05-01T05:12:01.362Z,57
2023-05-01T05:13:10.593Z,45
2023-05-01T05:14:19.709Z,45
2023-05-01T05:15:28.890Z,45
2023-05-01T05:16:38.061Z,63
2023-05-01T05:17:46.239Z,61
2023-05-01T05:18:55.451Z,59
2023-05-01T05:20:04.628Z,62
2023-05-01T05:21:13.813Z,65
2023-05-01T05:22:22.934Z,70
2023-05-01T05:23:32.193Z,69
2023-05-01T05:24:41.343Z,94
2023-05-01T05:25:50.444Z,98
2023-05-01T05:26:59.612Z,97
2023-05-01T05:28:08.798Z,41
2023-05-01T05:29:17.969Z,38
2023-05-01T05:30:27.140Z,35
2023-05-01T05:31:36.315Z,77
2023-05-01T05:32:44.514Z,76
2023-05-01T05:33:53.673Z,76
2023-05-01T05:35:01.904Z,77
2023-05-01T05:36:10.063Z,71
2023-05-01T05:37:19.340Z,68
2023-05-01T05:38:28.404Z,69
2023-05-01T05:39:37.606Z,69
2023-05-01T05:40:45.779Z,78
2023-05-01T05:41:54.090Z,82
2023-05-01T05:43:03.192Z,81
2023-05-01T05:44:12.326Z,91
2023-05-01T05:45:21.477Z,78
2023-05-01T05:46:30.682Z,88
2023-05-01T05:47:39.837Z,56
2023-05-01T05:48:48.995Z,69
2023-05-01T05:49:58.220Z,67
2023-05-01T05:51:07.430Z,86
2023-05-01T05:52:16.599Z,84
2023-05-01T05:53:25.693Z,66
2023-05-01T05:54:34.863Z,100
2023-05-01T05:55:44.055Z,63
2023-05-01T05:58:01.387Z,59
2023-05-01T05:59:10.564Z,59
2023-05-01T06:00:19.733Z,92
2023-05-01T06:01:28.899Z,92
2023-05-01T06:02:38.150Z,29
2023-05-01T06:04:56.462Z,41
2023-05-01T06:06:05.607Z,80
2023-05-01T06:07:13.787Z,61
2023-05-01T06:08:21.990Z,24
2023-05-01T06:09:30.191Z,58
2023-05-01T06:10:38.406Z,37
2023-05-01T06:11:47.644Z,26
2023-05-01T06:12:56.707Z,45
2023-05-01T06:14:05.889Z,43
2023-05-01T06:15:15.054Z,102
2023-05-01T06:16:24.257Z,84
2023-05-01T06:17:33.393Z,137
2023-05-01T06:18:42.585Z,98
2023-05-01T06:19:51.733Z,85
2023-05-01T06:21:01.034Z,84
2023-05-01T06:22:10.094Z,30
2023-05-01T06:23:19.261Z,53
2023-05-01T06:24:28.435Z,52
2023-05-01T06:25:36.624Z,97
2023-05-01T06:26:45.780Z,21
2023-05-01T06:27:54.973Z,30
2023-05-01T06:29:04.140Z,64
2023-05-01T06:30:13.349Z,83
2023-05-01T06:31:22.592Z,115
2023-05-01T06:32:31.726Z,97
2023-05-01T06:33:39.846Z,53
2023-05-01T06:34:48.104Z,61
2023-05-01T06:35:57.217Z,64
2023-05-01T06:37:06.404Z,52
2023-05-01T06:38:15.566Z,70
2023-05-01T06:39:24.727Z,62
2023-05-01T06:40:33.965Z,61
2023-05-01T06:41:43.070Z,54
2023-05-01T06:42:51.270Z,104
2023-05-01T06:45:08.647Z,63
2023-05-01T06:46:17.792Z,58
2023-05-01T06:47:26.972Z,100
2023-05-01T06:48:36.143Z,81
2023-05-01T06:49:45.477Z,58
2023-05-01T06:50:54.564Z,68
2023-05-01T06:52:03.690Z,115
2023-05-01T06:53:12.822Z,121
2023-05-01T06:54:22.002Z,81
2023-05-01T06:55:31.237Z,86
2023-05-01T06:56:40.418Z,86
2023-05-01T06:57:49.546Z,109
2023-05-01T06:58:57.822Z,121
2023-05-01T07:00:06.885Z,101
2023-05-01T07:01:16.069Z,90
2023-05-01T07:02:25.226Z,130
2023-05-01T07:03:34.404Z,114
2023-05-01T07:04:43.575Z,10
2023-05-01T07:05:52.794Z,69
2023-05-01T07:07:01.915Z,57
2023-05-01T07:08:10.152Z,48
2023-05-01T07:09:18.301Z,95
2023-05-01T07:10:27.462Z,63
2023-05-01T07:11:36.670Z,79
2023-05-01T07:12:45.815Z,102
2023-05-01T07:13:54.980Z,133
2023-05-01T07:15:04.152Z,129
2023-05-01T07:16:13.321Z,128
2023-05-01T07:17:22.550Z,135
2023-05-01T07:18:31.671Z,183
2023-05-01T07:19:40.950Z,120
2023-05-01T07:20:50.093Z,100
2023-05-01T07:21:59.192Z,140
2023-05-01T07:23:08.421Z,92
2023-05-01T07:24:16.563Z,63
2023-05-01T07:25:25.719Z,83
2023-05-01T07:26:34.899Z,147
2023-05-01T07:27:44.093Z,115
2023-05-01T07:28:53.237Z,122
2023-05-01T07:30:02.397Z,93
2023-05-01T07:31:11.678Z,67
2023-05-01T07:32:19.781Z,98
2023-05-01T07:33:27.984Z,86
2023-05-01T07:34:36.159Z,122
2023-05-01T07:35:44.389Z,113
2023-05-01T07:36:52.533Z,152
2023-05-01T07:38:00.761Z,146
2023-05-01T07:39:09.907Z,114
2023-05-01T07:40:19.128Z,101
2023-05-01T07:41:28.262Z,59
2023-05-01T07:42:37.461Z,90
2023-05-01T07:43:46.670Z,98
2023-05-01T07:44:55.778Z,127
2023-05-01T07:46:04.976Z,118
2023-05-01T07:47:14.103Z,134
2023-05-01T07:48:23.289Z,128
2023-05-01T07:49:32.457Z,135
2023-05-01T07:50:41.641Z,110
2023-05-01T07:51:50.786Z,130
2023-05-01T07:52:59.126Z,130
2023-05-01T07:54:08.146Z,124
2023-05-01T07:55:17.333Z,119
2023-05-01T07:56:26.501Z,122
2023-05-01T07:57:35.688Z,154
2023-05-01T07:58:44.869Z,135
2023-05-01T07:59:54.023Z,144
2023-05-01T08:01:02.227Z,81
2023-05-01T08:02:10.444Z,80
2023-05-01T08:03:19.576Z,113
2023-05-01T08:04:28.740Z,105
2023-05-01T08:05:37.916Z,105
2023-05-01T08:06:47.126Z,106
2023-05-01T08:07:56.328Z,105
2023-05-01T08:09:05.449Z,103
2023-05-01T08:10:14.622Z,60
2023-05-01T08:11:23.814Z,18
2023-05-01T08:12:32.963Z,18
2023-05-01T08:13:42.143Z,16
2023-05-01T08:14:51.334Z,52
2023-05-01T08:16:00.468Z,69
2023-05-01T08:17:08.666Z,78
2023-05-01T08:18:17.818Z,77
2023-05-01T08:19:26.990Z,104
2023-05-01T08:20:36.173Z,110
2023-05-01T08:21:45.341Z,112
2023-05-01T08:22:53.538Z,47
2023-05-01T08:24:02.728Z,87
2023-05-01T08:25:11.892Z,97
2023-05-01T08:26:20.075Z,61
2023-05-01T08:27:28.263Z,83
2023-05-01T08:28:37.456Z,82
2023-05-01T08:29:46.706Z,60
2023-05-01T08:30:55.013Z,104
2023-05-01T08:32:02.982Z,119
2023-05-01T08:33:12.163Z,112
2023-05-01T08:34:21.352Z,123
2023-05-01T08:35:30.507Z,55
2023-05-01T08:36:39.698Z,147
2023-05-01T08:37:48.938Z,75
2023-05-01T08:38:58.038Z,96
2023-05-01T08:40:07.241Z,97
2023-05-01T08:41:16.383Z,123
2023-05-01T08:42:25.588Z,123
2023-05-01T08:43:34.775Z,131
2023-05-01T08:44:43.887Z,45
2023-05-01T08:45:53.091Z,178
2023-05-01T08:47:01.279Z,108
2023-05-01T08:48:10.429Z,86
2023-05-01T08:49:19.659Z,71
2023-05-01T08:50:28.910Z,87
2023-05-01T08:51:37.947Z,77
2023-05-01T08:52:47.129Z,40
2023-05-01T08:53:56.266Z,88
2023-05-01T08:55:05.517Z,131
2023-05-01T08:56:14.646Z,131
2023-05-01T08:57:23.805Z,128
2023-05-01T08:58:33.000Z,80
2023-05-01T08:59:42.200Z,78
2023-05-01T09:00:51.300Z,75
2023-05-01T09:01:59.482Z,319
2023-05-01T09:03:08.658Z,75
2023-05-01T09:04:17.842Z,84
2023-05-01T09:05:26.994Z,83
2023-05-01T09:06:36.185Z,112
2023-05-01T09:07:45.353Z,134
2023-05-01T09:08:54.526Z,136
2023-05-01T09:10:03.716Z,113
2023-05-01T09:11:12.869Z,81
2023-05-01T09:12:22.046Z,95
2023-05-01T09:14:40.390Z,78
2023-05-01T09:15:49.553Z,81
2023-05-01T09:16:57.752Z,81
2023-05-01T09:18:06.912Z,75
2023-05-01T09:19:16.089Z,98
2023-05-01T09:20:25.289Z,99
2023-05-01T09:21:34.476Z,83
2023-05-01T09:22:43.613Z,135
2023-05-01T09:23:52.781Z,153
2023-05-01T09:25:02.005Z,168
2023-05-01T09:26:11.121Z,150
2023-05-01T09:27:20.314Z,153
2023-05-01T09:28:28.492Z,115
2023-05-01T09:29:37.661Z,106
2023-05-01T09:30:45.839Z,105
2023-05-01T09:31:55.056Z,49
2023-05-01T09:33:04.192Z,45
2023-05-01T09:34:12.393Z,46
2023-05-01T09:35:21.549Z,46
2023-05-01T09:36:29.741Z,45
2023-05-01T09:37:38.929Z,113
2023-05-01T09:38:48.207Z,164
2023-05-01T09:39:57.269Z,183
2023-05-01T09:41:06.464Z,158
2023-05-01T09:42:15.606Z,88
2023-05-01T09:43:24.847Z,68
2023-05-01T09:44:33.955Z,42
2023-05-01T09:45:43.125Z,27
2023-05-01T09:46:52.429Z,19
2023-05-01T09:48:01.483Z,88
2023-05-01T09:49:10.637Z,274
2023-05-01T09:50:19.821Z,3
2023-05-01T09:51:29.045Z,15
2023-05-01T09:52:37.178Z,332
2023-05-01T09:53:46.329Z,314
2023-05-01T09:56:04.755Z,37
2023-05-01T09:57:13.857Z,59
2023-05-01T09:58:23.046Z,67
2023-05-01T09:59:32.324Z,34
2023-05-01T10:00:41.544Z,97
2023-05-01T10:01:50.735Z,71
2023-05-01T10:02:59.819Z,112
2023-05-01T10:04:09.100Z,112
2023-05-01T10:05:18.266Z,91
2023-05-01T10:06:27.471Z,78
2023-05-01T10:07:35.527Z,80
2023-05-01T10:08:44.798Z,95
2023-05-01T10:09:53.848Z,96
2023-05-01T10:11:03.086Z,4
2023-05-01T10:12:12.291Z,91
2023-05-01T10:13:21.457Z,105
2023-05-01T10:14:30.699Z,13
2023-05-01T10:15:39.836Z,63
2023-05-01T10:16:49.027Z,63
2023-05-01T10:17:58.136Z,196
2023-05-01T10:19:07.312Z,194
2023-05-01T10:20:16.339Z,195
2023-05-01T10:21:25.715Z,80
2023-05-01T10:22:33.867Z,90
2023-05-01T10:23:43.047Z,56
2023-05-01T10:24:52.037Z,30
2023-05-01T10:26:01.201Z,38
2023-05-01T10:27:10.612Z,101
2023-05-01T10:28:19.724Z,127
2023-05-01T10:29:28.853Z,154
2023-05-01T10:30:38.005Z,164
2023-05-01T10:31:47.199Z,93
2023-05-01T10:32:56.355Z,33
2023-05-01T10:34:05.640Z,4
2023-05-01T10:35:14.744Z,126
2023-05-01T10:36:23.922Z,140
2023-05-01T10:37:32.107Z,220
2023-05-01T10:38:41.290Z,343
2023-05-01T10:39:50.476Z,324
2023-05-01T10:40:58.615Z,195
2023-05-01T10:42:06.840Z,155
2023-05-01T10:43:16.082Z,109
2023-05-01T10:44:25.167Z,183
2023-05-01T10:45:34.344Z,183
2023-05-01T10:46:42.446Z,83
2023-05-01T10:47:51.537Z,57
2023-05-01T10:48:59.795Z,1
2023-05-01T10:50:09.064Z,31
2023-05-01T10:51:18.228Z,64
2023-05-01T10:52:27.348Z,74
2023-05-01T10:53:36.640Z,66
2023-05-01T10:54:45.750Z,63
2023-05-01T10:55:54.902Z,282
2023-05-01T10:57:04.079Z,40
2023-05-01T10:58:13.200Z,288
2023-05-01T10:59:22.299Z,328
2023-05-01T11:00:31.482Z,338
2023-05-01T11:01:40.826Z,8
2023-05-01T11:02:49.901Z,333
2023-05-01T11:03:57.998Z,101
2023-05-01T11:05:07.316Z,302
2023-05-01T11:06:16.324Z,294
2023-05-01T11:07:25.561Z,7
2023-05-01T11:08:34.680Z,196
2023-05-01T11:09:43.904Z,159
2023-05-01T11:10:52.063Z,160
2023-05-01T11:12:00.291Z,343
2023-05-01T11:13:09.551Z,303
2023-05-01T11:14:18.647Z,336
2023-05-01T11:15:27.803Z,305
2023-05-01T11:16:37.011Z,309
2023-05-01T11:17:46.116Z,302
2023-05-01T11:18:55.272Z,316
2023-05-01T11:20:03.460Z,316
2023-05-01T11:21:11.684Z,307
2023-05-01T11:22:20.884Z,292
2023-05-01T11:23:30.042Z,37
2023-05-01T11:24:39.281Z,15
2023-05-01T11:25:48.453Z,12
2023-05-01T11:26:57.640Z,115
2023-05-01T11:28:06.706Z,324
2023-05-01T11:29:15.978Z,343
2023-05-01T11:30:25.029Z,24
2023-05-01T11:31:34.258Z,303
2023-05-01T11:32:43.388Z,9
2023-05-01T11:33:52.614Z,325
2023-05-01T11:35:01.773Z,31
2023-05-01T11:36:09.980Z,271
2023-05-01T11:37:19.176Z,323
2023-05-01T11:38:28.260Z,32
2023-05-01T11:39:37.454Z,120
2023-05-01T11:40:46.668Z,172
2023-05-01T11:41:55.777Z,79
2023-05-01T11:43:04.954Z,157
2023-05-01T11:44:14.182Z,118
2023-05-01T11:45:23.415Z,131
2023-05-01T11:46:32.472Z,116
2023-05-01T11:47:41.635Z,69
2023-05-01T11:48:50.796Z,329
2023-05-01T11:49:59.995Z,301
2023-05-01T11:51:08.180Z,302
2023-05-01T11:52:17.339Z,105
2023-05-01T11:53:26.519Z,99
2023-05-01T11:54:35.710Z,301
2023-05-01T11:55:44.862Z,25
2023-05-01T11:56:54.148Z,306
2023-05-01T11:58:03.267Z,302
2023-05-01T11:59:12.390Z,321
2023-05-01T12:00:20.563Z,202
2023-05-01T12:01:29.759Z,203
2023-05-01T12:02:37.932Z,174
2023-05-01T12:03:46.153Z,161
2023-05-01T12:04:54.450Z,141
2023-05-01T12:06:03.609Z,150
2023-05-01T12:07:12.666Z,313
2023-05-01T12:08:21.820Z,118
2023-05-01T12:09:31.010Z,290
2023-05-01T12:10:40.186Z,330
2023-05-01T12:11:49.356Z,1
2023-05-01T12:12:58.524Z,319
2023-05-01T12:14:06.709Z,343
2023-05-01T12:15:16.016Z,324
2023-05-01T12:16:25.098Z,16
2023-05-01T12:17:34.227Z,34
2023-05-01T12:18:43.420Z,211
2023-05-01T12:19:52.633Z,28
2023-05-01T12:21:01.801Z,21
2023-05-01T12:22:10.941Z,343
2023-05-01T12:23:20.113Z,325
2023-05-01T12:24:29.322Z,317
2023-05-01T12:25:38.433Z,60
2023-05-01T12:26:47.727Z,20
2023-05-01T12:27:56.777Z,331
2023-05-01T12:29:05.085Z,1
2023-05-01T12:30:14.188Z,182
2023-05-01T12:31:23.395Z,3
2023-05-01T12:32:32.486Z,21
2023-05-01T12:33:41.754Z,228
2023-05-01T12:34:50.929Z,123
2023-05-01T12:35:59.999Z,88
2023-05-01T12:37:09.276Z,69
2023-05-01T12:38:18.347Z,120
2023-05-01T12:39:27.576Z,114
2023-05-01T12:40:35.819Z,29
2023-05-01T12:41:43.950Z,29
2023-05-01T12:42:53.074Z,144
2023-05-01T12:44:02.252Z,120
2023-05-01T12:45:10.595Z,92
2023-05-01T12:46:19.721Z,121
2023-05-01T12:47:27.891Z,190
2023-05-01T12:48:36.967Z,226
2023-05-01T12:49:46.262Z,15
2023-05-01T12:50:55.424Z,313
2023-05-01T12:52:04.636Z,12
2023-05-01T12:53:13.704Z,324
2023-05-01T12:54:22.958Z,0
2023-05-01T12:55:32.124Z,293
2023-05-01T12:56:41.181Z,317
2023-05-01T12:57:50.460Z,288
2023-05-01T12:58:59.631Z,262
2023-05-01T13:00:08.813Z,275
2023-05-01T13:01:17.988Z,276
2023-05-01T13:02:26.065Z,1
2023-05-01T13:03:35.255Z,334
2023-05-01T13:04:44.422Z,334
2023-05-01T13:05:53.579Z,335
2023-05-01T13:07:02.755Z,299
2023-05-01T13:08:11.940Z,297
2023-05-01T13:09:20.130Z,60
2023-05-01T13:10:28.307Z,157
2023-05-01T13:11:36.584Z,215
2023-05-01T13:12:44.705Z,142
2023-05-01T13:13:53.934Z,194
2023-05-01T13:15:03.108Z,193
2023-05-01T13:16:12.214Z,180
2023-05-01T13:17:21.389Z,151
2023-05-01T13:18:30.562Z,138
2023-05-01T13:19:39.719Z,165
2023-05-01T13:20:48.899Z,184
2023-05-01T13:21:58.221Z,89
2023-05-01T13:23:07.269Z,315
2023-05-01T13:24:16.433Z,17
2023-05-01T13:25:25.615Z,63
2023-05-01T13:26:34.804Z,72
2023-05-01T13:27:42.953Z,151
2023-05-01T13:28:52.159Z,167
2023-05-01T13:30:01.356Z,158
2023-05-01T13:31:10.521Z,102
2023-05-01T13:32:19.680Z,198
2023-05-01T13:33:28.867Z,186
2023-05-01T13:34:38.021Z,181
2023-05-01T13:35:47.236Z,193
2023-05-01T13:36:55.349Z,214
2023-05-01T13:38:03.563Z,177
2023-05-01T13:39:12.703Z,170
2023-05-01T13:40:22.001Z,230
2023-05-01T13:41:31.090Z,228
2023-05-01T13:42:40.224Z,189
2023-05-01T13:43:49.398Z,169
2023-05-01T13:44:57.595Z,166
2023-05-01T13:46:05.779Z,214
2023-05-01T13:47:14.946Z,149
2023-05-01T13:48:24.117Z,168
2023-05-01T13:49:33.310Z,34
2023-05-01T13:50:42.460Z,293
2023-05-01T13:51:51.661Z,295
2023-05-01T13:53:00.832Z,295
2023-05-01T13:54:10.033Z,175
2023-05-01T13:56:28.375Z,260
2023-05-01T13:57:37.533Z,258
2023-05-01T13:58:46.664Z,91
2023-05-01T13:59:55.834Z,161
2023-05-01T14:01:04.025Z,163
2023-05-01T14:02:13.192Z,155
2023-05-01T14:03:22.389Z,154
2023-05-01T14:04:31.529Z,322
2023-05-01T14:05:40.714Z,319
2023-05-01T14:06:49.897Z,342
2023-05-01T14:07:59.116Z,341
2023-05-01T14:09:08.235Z,343
2023-05-01T14:10:17.419Z,342
2023-05-01T14:11:26.580Z,341
2023-05-01T14:12:35.755Z,342
2023-05-01T14:13:44.928Z,135
2023-05-01T14:14:54.259Z,183
2023-05-01T14:16:02.282Z,185
2023-05-01T14:17:11.467Z,202
2023-05-01T14:18:20.622Z,154
2023-05-01T14:19:29.791Z,198
2023-05-01T14:20:39.020Z,203
2023-05-01T14:21:48.240Z,202
2023-05-01T14:22:57.420Z,272
2023-05-01T14:24:06.548Z,137
2023-05-01T14:25:15.735Z,91
2023-05-01T14:26:24.867Z,217
2023-05-01T14:27:34.060Z,174
2023-05-01T14:28:43.190Z,235
2023-05-01T14:29:52.369Z,39
2023-05-01T14:31:00.526Z,143
2023-05-01T14:32:09.692Z,149
2023-05-01T14:33:18.875Z,149
2023-05-01T14:34:28.042Z,191
2023-05-01T14:35:37.388Z,191
2023-05-01T14:36:46.446Z,196
2023-05-01T14:37:55.589Z,130
2023-05-01T14:39:04.730Z,132
2023-05-01T14:40:12.959Z,274
2023-05-01T14:41:21.210Z,276
2023-05-01T14:42:30.308Z,293
2023-05-01T14:43:39.524Z,293
2023-05-01T14:44:47.720Z,294
2023-05-01T14:45:55.950Z,294
2023-05-01T14:47:05.013Z,293
2023-05-01T14:48:14.197Z,294
2023-05-01T14:49:23.379Z,292
2023-05-01T14:50:32.539Z,287
2023-05-01T14:51:41.719Z,247
2023-05-01T14:52:50.887Z,247
2023-05-01T14:54:00.115Z,238
2023-05-01T14:55:09.224Z,238
2023-05-01T14:56:18.536Z,238
2023-05-01T14:57:27.572Z,245
2023-05-01T14:58:36.748Z,285
2023-05-01T14:59:45.983Z,315
2023-05-01T15:00:54.139Z,315
2023-05-01T15:02:03.414Z,313
2023-05-01T15:03:12.459Z,314
2023-05-01T15:04:21.620Z,314
2023-05-01T15:05:30.796Z,314
2023-05-01T15:06:40.019Z,314
2023-05-01T15:07:49.140Z,314
2023-05-01T15:08:57.342Z,339
2023-05-01T15:10:05.514Z,334
2023-05-01T15:11:13.830Z,343
2023-05-01T15:12:21.934Z,316
2023-05-01T15:13:31.076Z,327
2023-05-01T15:14:40.245Z,335
2023-05-01T15:16:58.735Z,311
2023-05-01T15:18:07.768Z,313
2023-05-01T15:19:16.955Z,210
2023-05-01T15:20:26.125Z,199
2023-05-01T15:21:35.309Z,194
2023-05-01T15:22:44.462Z,162
2023-05-01T15:23:53.664Z,158
2023-05-01T15:25:02.926Z,152
2023-05-01T15:26:11.974Z,168
2023-05-01T15:27:20.182Z,169
2023-05-01T15:28:29.426Z,201
2023-05-01T15:29:38.511Z,180
2023-05-01T15:30:47.839Z,151
2023-05-01T15:31:56.849Z,132
2023-05-01T15:33:06.072Z,139
2023-05-01T15:34:15.225Z,147
2023-05-01T15:35:24.375Z,139
2023-05-01T15:36:32.597Z,166
2023-05-01T15:37:40.748Z,181
2023-05-01T15:38:49.916Z,157
2023-05-01T15:39:59.120Z,139
2023-05-01T15:41:07.372Z,167
2023-05-01T15:42:15.475Z,163
2023-05-01T15:43:24.655Z,175
2023-05-01T15:44:33.871Z,174
2023-05-01T15:45:43.011Z,168
2023-05-01T15:46:52.173Z,169
2023-05-01T15:48:01.452Z,154
2023-05-01T15:49:10.522Z,160
2023-05-01T15:50:19.760Z,137
2023-05-01T15:51:29.021Z,120
2023-05-01T15:52:38.100Z,167
2023-05-01T15:53:47.259Z,151
2023-05-01T15:54:56.406Z,138
2023-05-01T15:56:05.627Z,159
2023-05-01T15:57:13.771Z,155
2023-05-01T15:58:22.996Z,136
2023-05-01T15:59:32.100Z,135
2023-05-01T16:00:41.403Z,128
2023-05-01T16:01:50.567Z,150
2023-05-01T16:02:59.668Z,167
2023-05-01T16:04:08.786Z,140
2023-05-01T16:05:17.003Z,117
2023-05-01T16:06:25.183Z,130
2023-05-01T16:07:34.390Z,124
2023-05-01T16:08:42.549Z,163
2023-05-01T16:09:50.922Z,148
2023-05-01T16:11:00.013Z,112
2023-05-01T16:12:09.090Z,168
2023-05-01T16:13:18.418Z,152
2023-05-01T16:14:27.431Z,161
2023-05-01T16:15:36.680Z,185
2023-05-01T16:16:45.796Z,184
2023-05-01T16:17:54.938Z,253
2023-05-01T16:19:04.109Z,254
2023-05-01T16:21:22.567Z,253
2023-05-01T16:22:31.650Z,254
2023-05-01T16:23:40.878Z,252
2023-05-01T16:24:49.116Z,253
2023-05-01T16:25:58.148Z,253
2023-05-01T16:27:07.396Z,253
2023-05-01T16:28:16.598Z,253
2023-05-01T16:29:25.675Z,254
2023-05-01T16:30:34.905Z,253